Time;durP1;ratioP1;P1;durP2;ratioP2;P2;SDS_P1;SDS_P2;PMS_P1;PMS_P2;Temp;Humidity;BMP_temperature;BMP_pressure;BME280_temperature;BME280_humidity;BME280_pressure;Samples;Min_cycle;Max_cycle;Signal;HPM_P1;HPM_P2
2022/12/01 00:02:40;;;;;;;;;;;20.80;50.30;;;;;;6057106;29;21283;-48
2022/12/01 00:05:41;;;;;;;;;;;20.80;50.00;;;;;;6054270;29;20863;-48
2022/12/01 00:10:24;;;;;;;;;;;20.90;50.30;;;;;;6055639;28;19934;-50
2022/12/01 00:12:05;;;;;;;;;;;20.60;50.10;;;;;;6051191;29;19965;-47
2022/12/01 00:15:07;;;;;;;;;;;20.10;49.90;;;;;;6053183;29;20016;-50
2022/12/01 00:18:09;;;;;;;;;;;20.60;50.20;;;;;;6048265;29;19927;-47
2022/12/01 00:21:12;;;;;;;;;;;20.10;49.90;;;;;;6046415;28;20049;-48
2022/12/01 00:24:14;;;;;;;;;;;20.40;49.60;;;;;;6049224;28;19978;-58
2022/12/01 00:27:15;;;;;;;;;;;20.30;50.10;;;;;;6051737;28;19936;-51
2022/12/01 00:30:18;;;;;;;;;;;20.50;50.20;;;;;;6055480;29;19936;-48
2022/12/01 00:33:19;;;;;;;;;;;20.80;50.30;;;;;;6046928;29;19939;-50
2022/12/01 00:36:20;;;;;;;;;;;20.50;49.90;;;;;;6049678;29;19931;-49
2022/12/01 00:39:22;;;;;;;;;;;20.90;50.40;;;;;;6048668;29;19930;-49
2022/12/01 00:42:23;;;;;;;;;;;20.40;49.60;;;;;;6057352;28;19939;-48
2022/12/01 00:45:25;;;;;;;;;;;20.60;49.90;;;;;;6057374;28;19976;-48
2022/12/01 00:48:27;;;;;;;;;;;20.80;50.10;;;;;;6064184;28;19936;-49
2022/12/01 00:51:28;;;;;;;;;;;20.40;50.00;;;;;;6055815;28;20036;-48
2022/12/01 00:54:30;;;;;;;;;;;20.50;50.20;;;;;;6053091;29;20955;-50
2022/12/01 00:57:32;;;;;;;;;;;20.70;50.10;;;;;;6058354;29;19926;-50
2022/12/01 01:00:37;;;;;;;;;;;20.40;50.10;;;;;;6048235;28;20420;-51
2022/12/01 01:03:38;;;;;;;;;;;20.60;50.00;;;;;;6053144;29;20046;-49
2022/12/01 01:06:42;;;;;;;;;;;20.60;49.90;;;;;;6055770;28;19980;-49
2022/12/01 01:09:43;;;;;;;;;;;20.70;49.90;;;;;;6063865;29;19937;-50
2022/12/01 01:12:44;;;;;;;;;;;20.40;49.30;;;;;;6065302;28;20886;-49
2022/12/01 01:15:55;;;;;;;;;;;20.30;49.80;;;;;;6061028;29;19998;-49
2022/12/01 01:18:57;;;;;;;;;;;20.30;49.90;;;;;;6056928;28;20689;-50
2022/12/01 01:21:59;;;;;;;;;;;20.20;49.70;;;;;;6060787;28;21205;-48
2022/12/01 01:25:00;;;;;;;;;;;20.50;50.00;;;;;;6060060;28;20888;-48
2022/12/01 01:28:02;;;;;;;;;;;20.90;50.20;;;;;;6059809;28;20942;-49
2022/12/01 01:31:05;;;;;;;;;;;20.50;49.50;;;;;;6055937;28;21070;-48
2022/12/01 01:34:07;;;;;;;;;;;20.50;50.00;;;;;;6053374;29;20688;-51
2022/12/01 01:37:08;;;;;;;;;;;20.50;48.80;;;;;;6061214;29;20358;-50
2022/12/01 01:40:10;;;;;;;;;;;20.40;50.50;;;;;;6062105;28;19930;-50
2022/12/01 01:43:13;;;;;;;;;;;20.50;49.80;;;;;;6062283;28;19930;-49
2022/12/01 01:46:15;;;;;;;;;;;20.60;49.80;;;;;;6065563;28;20139;-48
2022/12/01 01:49:17;;;;;;;;;;;20.50;49.80;;;;;;6057104;29;20017;-52
2022/12/01 01:52:18;;;;;;;;;;;20.50;49.90;;;;;;6063651;28;20078;-54
2022/12/01 01:55:20;;;;;;;;;;;19.90;49.70;;;;;;6056889;29;19946;-50
2022/12/01 01:58:21;;;;;;;;;;;20.70;50.00;;;;;;6059934;29;19930;-50
2022/12/01 02:01:24;;;;;;;;;;;20.50;49.90;;;;;;6054088;29;19936;-51
2022/12/01 02:04:26;;;;;;;;;;;20.40;49.90;;;;;;6057937;29;19930;-49
2022/12/01 02:07:28;;;;;;;;;;;20.50;50.00;;;;;;6057166;29;20183;-48
2022/12/01 02:10:33;;;;;;;;;;;20.50;50.00;;;;;;6050034;29;20486;-48
2022/12/01 02:13:38;;;;;;;;;;;20.40;49.90;;;;;;6054028;28;19982;-47
2022/12/01 02:16:43;;;;;;;;;;;20.50;50.40;;;;;;6047862;29;19974;-48
2022/12/01 02:20:02;;;;;;;;;;;20.50;49.90;;;;;;6050861;29;19931;-49
2022/12/01 02:23:20;;;;;;;;;;;20.10;49.50;;;;;;6055649;29;20239;-51
2022/12/01 02:26:32;;;;;;;;;;;20.00;49.60;;;;;;6055455;29;20612;-50
2022/12/01 02:29:52;;;;;;;;;;;19.90;49.40;;;;;;6058317;29;20352;-50
2022/12/01 02:33:01;;;;;;;;;;;20.40;49.70;;;;;;6052780;28;20137;-50
2022/12/01 02:36:05;;;;;;;;;;;20.10;49.50;;;;;;6060578;29;20007;-48
2022/12/01 02:39:09;;;;;;;;;;;20.20;49.80;;;;;;6059079;29;19931;-48
2022/12/01 02:42:48;;;;;;;;;;;20.60;50.00;;;;;;6051802;29;20062;-52
2022/12/01 02:45:42;;;;;;;;;;;20.40;49.70;;;;;;6056245;29;20228;-50
2022/12/01 02:48:47;;;;;;;;;;;20.20;49.60;;;;;;6053774;29;19937;-48
2022/12/01 02:51:50;;;;;;;;;;;20.10;49.90;;;;;;6058787;29;20043;-49
2022/12/01 02:54:52;;;;;;;;;;;20.30;49.70;;;;;;6056374;28;21111;-49
2022/12/01 02:57:53;;;;;;;;;;;20.50;49.80;;;;;;6058627;28;20505;-49
2022/12/01 03:01:03;;;;;;;;;;;20.10;49.80;;;;;;6051354;28;20668;-49
2022/12/01 03:04:11;;;;;;;;;;;20.50;49.80;;;;;;6054998;29;19981;-48
2022/12/01 03:07:21;;;;;;;;;;;20.60;49.80;;;;;;6055751;28;20107;-50
2022/12/01 03:10:26;;;;;;;;;;;20.50;49.80;;;;;;6054407;28;20563;-48
2022/12/01 03:13:37;;;;;;;;;;;20.40;49.80;;;;;;6054624;28;20001;-48
2022/12/01 03:16:45;;;;;;;;;;;20.20;49.60;;;;;;6055608;28;20438;-48
2022/12/01 03:19:49;;;;;;;;;;;20.00;49.40;;;;;;6057802;28;20412;-49
2022/12/01 03:22:52;;;;;;;;;;;19.90;49.50;;;;;;6056876;29;20434;-49
2022/12/01 03:25:55;;;;;;;;;;;20.20;49.60;;;;;;6058626;29;20716;-49
2022/12/01 03:29:00;;;;;;;;;;;20.50;49.70;;;;;;6052291;29;19969;-57
2022/12/01 03:32:03;;;;;;;;;;;20.00;49.50;;;;;;6052285;29;20211;-50
2022/12/01 03:35:09;;;;;;;;;;;20.40;49.70;;;;;;6059762;29;19927;-50
2022/12/01 03:38:13;;;;;;;;;;;20.30;49.60;;;;;;6061591;28;20473;-47
2022/12/01 03:41:17;;;;;;;;;;;20.30;49.60;;;;;;6055244;29;19930;-50
2022/12/01 03:44:20;;;;;;;;;;;20.70;49.70;;;;;;6055597;29;20483;-48
2022/12/01 03:47:23;;;;;;;;;;;20.30;49.50;;;;;;6057976;29;20049;-49
2022/12/01 03:50:29;;;;;;;;;;;20.40;49.60;;;;;;6057785;29;20001;-49
2022/12/01 03:53:33;;;;;;;;;;;20.50;49.60;;;;;;6057951;29;20119;-50
2022/12/01 03:56:36;;;;;;;;;;;20.40;49.40;;;;;;6056140;29;19927;-50
2022/12/01 03:59:38;;;;;;;;;;;20.40;49.70;;;;;;6055341;28;20343;-49
2022/12/01 04:02:39;;;;;;;;;;;20.20;49.50;;;;;;6054543;29;20073;-50
2022/12/01 04:05:41;;;;;;;;;;;20.70;49.80;;;;;;6063119;28;19931;-48
2022/12/01 04:08:43;;;;;;;;;;;20.40;49.70;;;;;;6057733;29;20294;-52
2022/12/01 04:15:02;;;;;;;;;;;20.70;49.90;;;;;;6055989;28;20193;-49
2022/12/01 04:18:04;;;;;;;;;;;19.90;49.30;;;;;;6057806;29;20361;-47
2022/12/01 04:21:06;;;;;;;;;;;20.00;49.50;;;;;;6059038;29;19926;-47
2022/12/01 04:24:07;;;;;;;;;;;20.50;49.80;;;;;;6055779;28;20126;-44
2022/12/01 04:27:09;;;;;;;;;;;20.60;49.80;;;;;;6062565;28;19933;-50
2022/12/01 04:30:11;;;;;;;;;;;20.20;49.50;;;;;;6065043;28;19927;-47
2022/12/01 04:33:12;;;;;;;;;;;20.50;48.90;;;;;;6062724;29;20043;-47
2022/12/01 04:36:14;;;;;;;;;;;20.50;49.80;;;;;;6057937;29;20352;-46
2022/12/01 04:39:15;;;;;;;;;;;20.20;49.40;;;;;;6064649;29;19930;-48
2022/12/01 04:42:17;;;;;;;;;;;20.10;49.40;;;;;;6065695;29;20922;-47
2022/12/01 04:45:18;;;;;;;;;;;20.00;49.40;;;;;;6065001;28;19970;-48
2022/12/01 04:48:19;;;;;;;;;;;20.40;49.60;;;;;;6062585;29;21084;-47
2022/12/01 04:51:21;;;;;;;;;;;21.00;50.00;;;;;;6064164;28;19930;-46
2022/12/01 04:54:23;;;;;;;;;;;20.40;49.30;;;;;;6063806;29;20037;-47
2022/12/01 04:57:24;;;;;;;;;;;20.10;49.40;;;;;;6063699;28;20793;-47
2022/12/01 05:00:26;;;;;;;;;;;20.30;49.40;;;;;;6063096;29;19937;-51
2022/12/01 05:03:27;;;;;;;;;;;20.30;49.50;;;;;;6059018;28;20208;-50
2022/12/01 05:06:29;;;;;;;;;;;20.40;49.50;;;;;;6057036;29;19937;-49
2022/12/01 05:09:30;;;;;;;;;;;20.30;49.40;;;;;;6053745;29;19958;-49
2022/12/01 05:12:31;;;;;;;;;;;19.80;49.40;;;;;;6051146;29;20488;-48
2022/12/01 05:15:33;;;;;;;;;;;20.30;49.50;;;;;;6054530;29;20090;-47
2022/12/01 05:18:34;;;;;;;;;;;19.90;49.40;;;;;;6055829;29;19937;-47
2022/12/01 05:21:36;;;;;;;;;;;20.20;49.40;;;;;;6051712;29;20269;-46
2022/12/01 05:24:37;;;;;;;;;;;20.20;49.40;;;;;;6053564;29;19927;-48
2022/12/01 05:27:39;;;;;;;;;;;20.20;49.50;;;;;;6054784;28;20131;-46
2022/12/01 05:30:40;;;;;;;;;;;20.00;48.90;;;;;;6050011;28;20025;-48
2022/12/01 05:33:41;;;;;;;;;;;20.40;49.50;;;;;;6052850;29;19927;-47
2022/12/01 05:36:43;;;;;;;;;;;20.20;49.50;;;;;;6052520;29;20169;-48
2022/12/01 05:39:45;;;;;;;;;;;20.30;49.50;;;;;;6050133;29;20021;-48
2022/12/01 05:42:46;;;;;;;;;;;20.20;49.50;;;;;;6066068;29;19931;-49
2022/12/01 05:45:48;;;;;;;;;;;19.80;49.30;;;;;;6053997;29;19982;-54
2022/12/01 05:48:50;;;;;;;;;;;20.20;49.50;;;;;;6050993;29;19938;-49
2022/12/01 05:51:52;;;;;;;;;;;20.10;49.40;;;;;;6050959;29;19937;-47
2022/12/01 05:54:53;;;;;;;;;;;20.10;49.30;;;;;;6043225;29;19938;-48
2022/12/01 05:57:54;;;;;;;;;;;20.50;49.60;;;;;;6042971;29;20583;-47
2022/12/01 06:00:56;;;;;;;;;;;20.30;49.60;;;;;;6048151;29;20376;-50
2022/12/01 06:03:57;;;;;;;;;;;19.80;49.40;;;;;;6053490;28;20909;-49
2022/12/01 06:06:59;;;;;;;;;;;20.30;49.30;;;;;;6056166;29;19937;-49
2022/12/01 06:10:01;;;;;;;;;;;19.80;49.30;;;;;;6053638;29;21055;-47
2022/12/01 06:13:02;;;;;;;;;;;19.80;49.10;;;;;;6055918;29;19926;-51
2022/12/01 06:16:04;;;;;;;;;;;20.50;49.70;;;;;;6057562;29;19989;-49
2022/12/01 06:19:06;;;;;;;;;;;20.40;49.50;;;;;;6054548;29;19937;-48
2022/12/01 06:22:08;;;;;;;;;;;19.80;49.30;;;;;;6055754;29;19930;-47
2022/12/01 06:25:10;;;;;;;;;;;20.10;49.40;;;;;;6054177;28;20674;-47
2022/12/01 06:28:11;;;;;;;;;;;20.20;49.50;;;;;;6041172;29;19933;-49
2022/12/01 06:31:12;;;;;;;;;;;19.90;49.40;;;;;;6051218;29;19930;-50
2022/12/01 06:34:13;;;;;;;;;;;20.50;49.70;;;;;;6048061;28;19962;-47
2022/12/01 06:37:15;;;;;;;;;;;19.90;49.30;;;;;;6052048;28;21034;-48
2022/12/01 06:40:17;;;;;;;;;;;20.10;49.30;;;;;;6049994;28;20049;-50
2022/12/01 06:43:18;;;;;;;;;;;20.20;49.40;;;;;;6052926;28;19984;-48
2022/12/01 06:46:19;;;;;;;;;;;20.70;49.90;;;;;;6051973;29;19930;-48
2022/12/01 06:49:21;;;;;;;;;;;20.30;49.50;;;;;;6041113;29;19938;-49
2022/12/01 06:52:22;;;;;;;;;;;19.90;49.30;;;;;;6050960;29;20260;-48
2022/12/01 06:55:24;;;;;;;;;;;20.20;49.40;;;;;;6047007;29;19930;-47
2022/12/01 06:58:26;;;;;;;;;;;20.40;49.50;;;;;;6043233;28;20955;-47
2022/12/01 07:01:27;;;;;;;;;;;20.00;49.10;;;;;;6032763;29;21089;-49
2022/12/01 07:04:29;;;;;;;;;;;19.80;49.20;;;;;;6034344;28;20049;-47
2022/12/01 07:07:34;;;;;;;;;;;20.20;49.20;;;;;;6038580;28;19926;-56
2022/12/01 07:10:35;;;;;;;;;;;20.30;49.40;;;;;;6035490;28;19926;-54
2022/12/01 07:13:37;;;;;;;;;;;20.20;49.20;;;;;;6037334;28;20041;-49
2022/12/01 07:16:38;;;;;;;;;;;20.50;49.70;;;;;;6032064;28;19931;-51
2022/12/01 07:19:39;;;;;;;;;;;19.90;49.30;;;;;;6037828;29;20001;-49
2022/12/01 07:22:42;;;;;;;;;;;20.60;49.60;;;;;;6016519;29;19933;-52
2022/12/01 07:25:43;;;;;;;;;;;20.20;49.50;;;;;;6018520;28;20884;-48
2022/12/01 07:28:44;;;;;;;;;;;20.70;49.60;;;;;;6006713;29;19966;-51
2022/12/01 07:31:46;;;;;;;;;;;19.90;49.10;;;;;;6017059;29;19938;-46
2022/12/01 07:34:47;;;;;;;;;;;20.50;49.40;;;;;;6007021;28;19930;-50
2022/12/01 07:37:53;;;;;;;;;;;20.10;49.20;;;;;;5987079;28;19938;-47
2022/12/01 07:40:54;;;;;;;;;;;20.00;49.00;;;;;;5964901;28;20164;-48
2022/12/01 07:43:56;;;;;;;;;;;20.50;49.30;;;;;;5968655;28;19930;-49
2022/12/01 07:46:57;;;;;;;;;;;20.60;49.50;;;;;;5982268;29;19938;-49
2022/12/01 07:49:58;;;;;;;;;;;20.10;48.80;;;;;;5953727;29;21099;-47
2022/12/01 07:53:00;;;;;;;;;;;20.80;49.40;;;;;;5935012;28;19930;-46
2022/12/01 07:56:04;;;;;;;;;;;20.60;49.00;;;;;;5889822;28;19970;-54
2022/12/01 07:59:10;;;;;;;;;;;20.30;49.60;;;;;;5895702;29;19939;-47
2022/12/01 08:02:12;;;;;;;;;;;20.10;49.00;;;;;;5872090;28;19931;-49
2022/12/01 08:05:13;;;;;;;;;;;20.80;49.30;;;;;;5892478;29;21797;-51
2022/12/01 08:08:15;;;;;;;;;;;20.30;48.90;;;;;;5816953;28;19966;-51
2022/12/01 08:11:18;;;;;;;;;;;20.80;49.10;;;;;;5799712;29;20069;-48
2022/12/01 08:14:19;;;;;;;;;;;20.20;49.00;;;;;;5758270;28;19930;-45
2022/12/01 08:17:20;;;;;;;;;;;20.40;49.00;;;;;;5809568;28;21891;-49
2022/12/01 08:20:22;;;;;;;;;;;20.70;48.40;;;;;;5801957;28;19931;-48
2022/12/01 08:23:25;;;;;;;;;;;20.00;48.40;;;;;;5783802;29;19931;-51
2022/12/01 08:26:27;;;;;;;;;;;20.20;48.70;;;;;;5538895;28;21284;-48
2022/12/01 08:29:28;;;;;;;;;;;20.40;48.90;;;;;;5795547;28;19971;-53
2022/12/01 08:32:30;;;;;;;;;;;20.30;48.80;;;;;;5767584;29;19939;-47
2022/12/01 08:35:35;;;;;;;;;;;20.50;48.90;;;;;;5794825;29;19938;-52
2022/12/01 08:38:37;;;;;;;;;;;20.40;48.70;;;;;;5797344;29;23105;-46
2022/12/01 08:41:38;;;;;;;;;;;20.30;48.30;;;;;;5751320;29;24024;-48
2022/12/01 08:44:40;;;;;;;;;;;20.40;48.30;;;;;;5776667;29;19931;-49
2022/12/01 08:47:42;;;;;;;;;;;21.00;48.60;;;;;;5787388;29;19938;-54
2022/12/01 08:50:43;;;;;;;;;;;20.80;48.30;;;;;;5784619;28;19930;-52
2022/12/01 08:53:46;;;;;;;;;;;20.40;48.00;;;;;;5775617;29;19931;-55
2022/12/01 08:56:48;;;;;;;;;;;20.70;48.00;;;;;;5818833;28;23640;-50
2022/12/01 08:59:49;;;;;;;;;;;20.80;48.10;;;;;;5853948;28;19938;-50
2022/12/01 09:02:51;;;;;;;;;;;20.90;48.40;;;;;;5755426;29;20013;-47
2022/12/01 09:05:53;;;;;;;;;;;20.70;48.20;;;;;;5791818;28;19931;-48
2022/12/01 09:08:54;;;;;;;;;;;21.10;48.10;;;;;;5778853;29;19938;-49
2022/12/01 09:11:56;;;;;;;;;;;20.30;47.50;;;;;;5813214;29;20124;-50
2022/12/01 09:14:57;;;;;;;;;;;20.60;47.60;;;;;;5801178;29;19956;-49
2022/12/01 09:17:59;;;;;;;;;;;20.80;47.80;;;;;;5800774;29;20723;-50
2022/12/01 09:21:08;;;;;;;;;;;21.20;48.00;;;;;;5814400;28;19934;-50
2022/12/01 09:24:11;;;;;;;;;;;20.70;47.70;;;;;;5810694;28;19930;-48
2022/12/01 09:27:13;;;;;;;;;;;20.70;47.50;;;;;;5796150;28;21286;-49
2022/12/01 09:30:15;;;;;;;;;;;21.00;47.60;;;;;;5766622;28;19930;-51
2022/12/01 09:33:17;;;;;;;;;;;20.90;47.50;;;;;;5741042;28;19931;-47
2022/12/01 09:36:19;;;;;;;;;;;21.00;47.50;;;;;;5782330;29;19955;-47
2022/12/01 09:39:21;;;;;;;;;;;21.10;47.70;;;;;;5783218;29;19935;-47
2022/12/01 09:42:26;;;;;;;;;;;20.90;47.70;;;;;;5775263;28;19934;-47
2022/12/01 09:45:36;;;;;;;;;;;21.00;47.80;;;;;;5732338;28;20171;-47
2022/12/01 09:48:42;;;;;;;;;;;20.90;47.40;;;;;;5769034;28;19934;-47
2022/12/01 09:51:43;;;;;;;;;;;21.20;47.80;;;;;;5753090;28;20561;-51
2022/12/01 09:54:46;;;;;;;;;;;20.90;47.50;;;;;;5788281;29;19931;-47
2022/12/01 09:57:48;;;;;;;;;;;21.00;46.90;;;;;;5767079;28;19931;-48
2022/12/01 10:00:51;;;;;;;;;;;20.60;47.70;;;;;;5719925;28;19939;-47
2022/12/01 10:03:54;;;;;;;;;;;20.90;47.90;;;;;;5733122;29;20009;-47
2022/12/01 10:06:58;;;;;;;;;;;20.80;47.80;;;;;;5689341;28;25734;-47
2022/12/01 10:10:01;;;;;;;;;;;21.60;48.70;;;;;;5757635;28;19938;-48
2022/12/01 10:13:07;;;;;;;;;;;21.00;47.70;;;;;;5787036;28;19937;-46
2022/12/01 10:16:11;;;;;;;;;;;21.00;46.10;;;;;;5800883;29;19949;-47
2022/12/01 10:19:14;;;;;;;;;;;21.10;48.10;;;;;;5787639;29;22051;-50
2022/12/01 10:22:23;;;;;;;;;;;20.90;47.60;;;;;;5783977;29;19931;-50
2022/12/01 10:25:25;;;;;;;;;;;20.60;47.70;;;;;;5804083;28;23463;-49
2022/12/01 10:28:38;;;;;;;;;;;21.30;48.00;;;;;;5800273;29;28957;-49
2022/12/01 10:31:46;;;;;;;;;;;20.80;47.70;;;;;;5784046;29;22108;-47
2022/12/01 10:34:48;;;;;;;;;;;21.70;48.00;;;;;;5780641;28;19986;-47
2022/12/01 10:37:52;;;;;;;;;;;20.60;47.90;;;;;;5773528;29;22179;-46
2022/12/01 10:40:57;;;;;;;;;;;20.80;47.80;;;;;;5752088;29;19938;-48
2022/12/01 10:43:59;;;;;;;;;;;20.50;47.50;;;;;;5805995;28;19931;-46
2022/12/01 10:47:01;;;;;;;;;;;21.10;47.50;;;;;;5796573;28;19930;-46
2022/12/01 10:50:03;;;;;;;;;;;20.80;47.70;;;;;;5807171;29;19930;-47
2022/12/01 10:53:04;;;;;;;;;;;21.20;48.00;;;;;;5802623;29;20025;-46
2022/12/01 10:56:08;;;;;;;;;;;20.90;47.80;;;;;;5817728;29;19936;-47
2022/12/01 10:59:21;;;;;;;;;;;21.10;47.90;;;;;;5807887;28;21298;-47
2022/12/01 11:02:23;;;;;;;;;;;21.10;47.90;;;;;;5792824;28;21305;-47
2022/12/01 11:05:27;;;;;;;;;;;21.50;48.10;;;;;;5799599;28;19930;-47
2022/12/01 11:08:32;;;;;;;;;;;20.90;47.80;;;;;;5810713;28;19931;-49
2022/12/01 11:11:35;;;;;;;;;;;21.00;47.30;;;;;;5812977;29;19931;-47
2022/12/01 11:14:42;;;;;;;;;;;20.30;47.40;;;;;;5828044;28;20932;-47
2022/12/01 11:17:45;;;;;;;;;;;21.30;47.70;;;;;;5854216;29;20014;-48
2022/12/01 11:20:46;;;;;;;;;;;20.60;47.60;;;;;;5857701;29;19931;-49
2022/12/01 11:23:48;;;;;;;;;;;20.90;47.80;;;;;;5810688;28;19931;-49
2022/12/01 11:26:50;;;;;;;;;;;20.90;47.90;;;;;;5860796;28;20271;-50
2022/12/01 11:29:54;;;;;;;;;;;21.40;47.90;;;;;;5884743;28;19931;-48
2022/12/01 11:32:57;;;;;;;;;;;21.00;47.80;;;;;;5861809;29;20076;-49
2022/12/01 11:35:58;;;;;;;;;;;20.60;47.60;;;;;;5900288;28;19931;-47
2022/12/01 11:39:00;;;;;;;;;;;20.60;47.30;;;;;;5904838;29;19930;-47
2022/12/01 11:42:03;;;;;;;;;;;21.30;48.00;;;;;;5916934;28;19937;-49
2022/12/01 11:45:08;;;;;;;;;;;20.60;47.70;;;;;;5932516;28;19942;-46
2022/12/01 11:48:18;;;;;;;;;;;21.40;48.00;;;;;;5930838;29;21719;-49
2022/12/01 11:51:25;;;;;;;;;;;20.50;47.60;;;;;;5930719;29;19938;-48
2022/12/01 11:54:27;;;;;;;;;;;20.70;47.80;;;;;;5943125;28;19938;-49
2022/12/01 11:57:30;;;;;;;;;;;21.00;48.10;;;;;;5939240;28;21342;-47
2022/12/01 12:00:42;;;;;;;;;;;21.20;48.00;;;;;;5918777;29;19931;-50
2022/12/01 12:03:49;;;;;;;;;;;20.50;47.70;;;;;;5901882;28;20854;-51
2022/12/01 12:06:56;;;;;;;;;;;20.90;47.90;;;;;;5937667;28;19930;-47
2022/12/01 12:10:08;;;;;;;;;;;20.70;47.90;;;;;;5939711;28;19935;-49
2022/12/01 12:13:20;;;;;;;;;;;21.20;48.70;;;;;;5933386;28;19931;-51
2022/12/01 12:16:26;;;;;;;;;;;21.10;48.10;;;;;;5953583;28;19937;-49
2022/12/01 12:19:41;;;;;;;;;;;21.20;48.10;;;;;;5932888;29;19982;-47
2022/12/01 12:23:08;;;;;;;;;;;20.90;47.80;;;;;;5937498;29;19934;-51
2022/12/01 12:26:14;;;;;;;;;;;21.00;47.90;;;;;;5915200;28;20820;-48
2022/12/01 12:29:21;;;;;;;;;;;20.80;47.80;;;;;;5942794;29;19939;-49
2022/12/01 12:32:30;;;;;;;;;;;21.10;48.00;;;;;;5933013;29;19931;-50
2022/12/01 12:35:36;;;;;;;;;;;20.80;47.80;;;;;;5928797;29;19970;-47
2022/12/01 12:38:44;;;;;;;;;;;20.70;47.70;;;;;;5943991;28;19931;-50
2022/12/01 12:41:47;;;;;;;;;;;20.40;47.90;;;;;;5930098;28;19938;-54
2022/12/01 12:44:50;;;;;;;;;;;20.70;47.50;;;;;;5914790;29;19938;-52
2022/12/01 12:47:57;;;;;;;;;;;20.80;47.60;;;;;;5915257;28;19931;-50
2022/12/01 12:51:07;;;;;;;;;;;20.80;47.70;;;;;;5901697;29;19937;-48
2022/12/01 12:54:15;;;;;;;;;;;20.70;47.30;;;;;;5896606;28;19930;-48
2022/12/01 12:57:20;;;;;;;;;;;21.10;47.50;;;;;;5884981;28;20257;-48
2022/12/01 13:00:23;;;;;;;;;;;21.10;47.60;;;;;;5803463;28;22377;-48
2022/12/01 13:03:29;;;;;;;;;;;20.80;48.20;;;;;;5765182;28;20549;-53
2022/12/01 13:06:36;;;;;;;;;;;20.80;47.90;;;;;;5825105;28;21719;-49
2022/12/01 13:09:42;;;;;;;;;;;20.90;47.80;;;;;;5824175;29;21157;-48
2022/12/01 13:12:49;;;;;;;;;;;21.10;48.00;;;;;;5349308;29;20030;-47
2022/12/01 13:15:52;;;;;;;;;;;20.90;47.80;;;;;;5519792;28;19931;-45
2022/12/01 13:18:55;;;;;;;;;;;21.10;47.70;;;;;;5818726;28;19935;-49
2022/12/01 13:21:57;;;;;;;;;;;20.90;49.30;;;;;;5873451;29;19931;-48
2022/12/01 13:24:59;;;;;;;;;;;21.10;49.50;;;;;;5851910;28;19935;-51
2022/12/01 13:28:02;;;;;;;;;;;21.30;49.20;;;;;;5805924;29;19938;-50
2022/12/01 13:31:05;;;;;;;;;;;20.80;48.60;;;;;;5845750;28;19931;-50
2022/12/01 13:34:16;;;;;;;;;;;21.20;49.00;;;;;;5762003;28;20065;-53
2022/12/01 13:37:24;;;;;;;;;;;20.90;49.20;;;;;;5506103;29;19938;-46
2022/12/01 13:40:28;;;;;;;;;;;21.10;48.90;;;;;;5825179;29;19931;-46
2022/12/01 13:43:31;;;;;;;;;;;21.10;49.20;;;;;;5842954;29;21655;-46
2022/12/01 13:46:48;;;;;;;;;;;21.30;49.00;;;;;;5788615;29;19930;-45
2022/12/01 13:49:57;;;;;;;;;;;20.90;48.80;;;;;;5804766;29;20067;-44
2022/12/01 13:53:08;;;;;;;;;;;21.70;48.80;;;;;;5791231;28;19958;-48
2022/12/01 13:56:21;;;;;;;;;;;20.90;48.30;;;;;;5797479;29;19938;-49
2022/12/01 13:59:38;;;;;;;;;;;21.40;48.70;;;;;;5782355;29;21496;-52
2022/12/01 14:02:39;;;;;;;;;;;21.40;48.70;;;;;;5724714;29;19938;-48
2022/12/01 14:05:44;;;;;;;;;;;21.40;48.10;;;;;;5760879;28;19958;-47
2022/12/01 14:08:46;;;;;;;;;;;21.20;48.30;;;;;;5779181;29;39610;-48
2022/12/01 14:11:55;;;;;;;;;;;21.50;48.40;;;;;;5736897;28;19938;-50
2022/12/01 14:14:58;;;;;;;;;;;21.30;48.50;;;;;;5770205;28;19930;-50
2022/12/01 14:18:03;;;;;;;;;;;21.60;48.60;;;;;;5789909;28;21637;-51
2022/12/01 14:21:06;;;;;;;;;;;21.70;48.60;;;;;;5759276;28;19938;-49
2022/12/01 14:24:17;;;;;;;;;;;21.70;48.40;;;;;;5725504;28;20430;-47
2022/12/01 14:27:31;;;;;;;;;;;21.60;48.40;;;;;;5731450;28;24370;-47
2022/12/01 14:30:48;;;;;;;;;;;21.60;48.00;;;;;;4505047;28;21668;-52
2022/12/01 14:33:51;;;;;;;;;;;21.90;48.50;;;;;;5743232;28;19931;-51
2022/12/01 14:36:56;;;;;;;;;;;21.90;48.60;;;;;;5743676;28;20018;-48
2022/12/01 14:40:03;;;;;;;;;;;21.40;48.30;;;;;;5753995;29;19931;-48
2022/12/01 14:46:23;;;;;;;;;;;21.40;48.40;;;;;;5152342;29;22824;-50
2022/12/01 14:49:28;;;;;;;;;;;21.00;48.50;;;;;;4665314;28;21350;-54
2022/12/01 14:52:32;;;;;;;;;;;21.30;48.50;;;;;;5820020;28;19930;-51
2022/12/01 14:55:36;;;;;;;;;;;21.20;48.30;;;;;;5805450;28;19939;-52
2022/12/01 14:58:37;;;;;;;;;;;21.30;48.50;;;;;;5277657;28;20223;-49
2022/12/01 15:01:39;;;;;;;;;;;21.60;48.70;;;;;;5774215;28;20528;-52
2022/12/01 15:04:56;;;;;;;;;;;21.50;48.70;;;;;;5787590;29;21620;-50
2022/12/01 15:08:00;;;;;;;;;;;21.30;48.60;;;;;;5789447;28;19931;-52
2022/12/01 15:11:24;;;;;;;;;;;21.30;48.40;;;;;;4936039;29;20906;-47
2022/12/01 15:14:29;;;;;;;;;;;20.90;49.30;;;;;;5655871;29;24868;-49
2022/12/01 15:17:31;;;;;;;;;;;21.40;48.60;;;;;;5804076;29;19930;-53
2022/12/01 15:20:33;;;;;;;;;;;21.40;48.80;;;;;;5845681;28;19930;-49
2022/12/01 15:23:35;;;;;;;;;;;21.40;48.20;;;;;;5817878;29;20107;-49
2022/12/01 15:26:46;;;;;;;;;;;21.60;48.90;;;;;;5738354;29;19931;-50
2022/12/01 15:29:47;;;;;;;;;;;21.40;48.80;;;;;;5797151;28;19989;-49
2022/12/01 15:32:49;;;;;;;;;;;21.70;49.00;;;;;;5493559;29;22914;-54
2022/12/01 15:35:51;;;;;;;;;;;21.10;48.30;;;;;;5826806;29;19931;-51
2022/12/01 15:38:53;;;;;;;;;;;21.40;49.00;;;;;;5853901;28;20998;-52
2022/12/01 15:41:55;;;;;;;;;;;21.70;48.90;;;;;;5765327;28;20029;-52
2022/12/01 15:44:58;;;;;;;;;;;21.60;48.80;;;;;;5847047;28;21124;-52
2022/12/01 15:48:13;;;;;;;;;;;21.40;48.70;;;;;;5885111;28;21023;-54
2022/12/01 15:51:16;;;;;;;;;;;21.20;48.70;;;;;;5889755;28;20476;-53
2022/12/01 15:54:20;;;;;;;;;;;21.50;48.80;;;;;;5839438;28;21659;-50
2022/12/01 15:57:21;;;;;;;;;;;21.60;49.10;;;;;;5826716;29;28589;-49
2022/12/01 16:00:23;;;;;;;;;;;21.50;49.00;;;;;;5819781;29;19937;-49
2022/12/01 16:03:27;;;;;;;;;;;21.20;48.80;;;;;;5812426;28;20080;-48
2022/12/01 16:06:29;;;;;;;;;;;21.50;48.90;;;;;;5793414;28;19931;-48
2022/12/01 16:09:34;;;;;;;;;;;21.10;48.80;;;;;;5825728;29;20068;-50
2022/12/01 16:17:01;;;;;;;1.80;1.48;;;21.80;56.20;;;;;;6126578;27;20189;-60
2022/12/01 16:20:22;;;;;;;1.70;1.30;;;21.40;41.30;;;;;;6091637;27;20074;-60
2022/12/01 16:23:25;;;;;;;1.73;1.42;;;21.30;41.00;;;;;;5887921;27;20835;-62
2022/12/01 16:26:28;;;;;;;1.63;1.30;;;20.90;55.80;;;;;;5092723;27;20615;-61
2022/12/01 16:29:33;;;;;;;1.52;1.30;;;20.50;40.80;;;;;;6099670;27;20039;-61
2022/12/01 16:32:38;;;;;;;1.52;1.30;;;20.40;40.60;;;;;;6057262;27;20986;-59
2022/12/01 16:35:39;;;;;;;1.85;1.20;;;20.60;40.60;;;;;;6112115;27;20055;-61
2022/12/01 16:38:41;;;;;;;;;;;20.10;40.40;;;;;;6073206;27;21779;-62
2022/12/01 16:41:45;;;;;;;1.98;1.40;;;20.50;41.10;;;;;;5185770;27;21518;-57
2022/12/01 16:44:50;;;;;;;2.00;1.55;;;20.00;40.60;;;;;;4763106;27;23884;-60
2022/12/01 16:47:55;;;;;;;1.95;1.75;;;20.20;41.40;;;;;;4345247;27;23905;-62
2022/12/01 16:51:00;;;;;;;2.45;1.30;;;19.90;40.50;;;;;;6112463;27;20128;-57
2022/12/01 16:54:04;;;;;;;1.60;1.40;;;19.90;40.60;;;;;;6131989;27;21624;-61
2022/12/01 16:57:05;;;;;;;1.73;1.33;;;20.20;40.50;;;;;;5914265;27;21271;-59
2022/12/01 17:00:08;;;;;;;;;;;20.30;40.50;;;;;;6127629;27;20050;-57
2022/12/01 17:03:14;;;;;;;1.15;1.00;;;20.40;41.10;;;;;;5650515;27;19927;-62
2022/12/01 17:06:19;;;;;;;1.42;1.33;;;21.40;41.80;;;;;;4536876;27;20930;-60
2022/12/01 17:09:21;;;;;;;1.30;1.13;;;20.20;40.40;;;;;;5683547;27;20463;-60
2022/12/01 17:12:25;;;;;;;1.63;1.30;;;19.90;40.30;;;;;;5065464;27;22738;-60
2022/12/01 17:15:27;;;;;;;1.67;1.40;;;19.90;40.00;;;;;;5167931;27;22055;-63
2022/12/01 17:18:29;;;;;;;;;;;20.30;40.50;;;;;;5828519;27;22143;-53
2022/12/01 17:21:30;;;;;;;1.10;1.00;;;19.90;39.80;;;;;;5418269;27;20166;-58
2022/12/01 17:24:32;;;;;;;1.02;0.90;;;20.20;40.40;;;;;;6145089;27;20345;-61
2022/12/01 17:27:33;;;;;;;1.45;1.17;;;20.00;40.20;;;;;;4688512;27;20474;-61
2022/12/01 17:30:36;;;;;;;1.42;1.27;;;20.10;40.10;;;;;;6158631;27;20397;-61
2022/12/01 17:33:38;;;;;;;1.13;1.02;;;19.60;39.70;;;;;;6124327;27;21353;-60
2022/12/01 17:36:40;;;;;;;1.70;1.38;;;19.90;39.80;;;;;;6146687;27;20330;-58
2022/12/01 17:39:42;;;;;;;1.73;1.33;;;19.70;39.60;;;;;;6170130;27;20248;-66
2022/12/01 17:42:43;;;;;;;;;;;19.60;39.60;;;;;;6189283;27;21099;-62
2022/12/01 17:45:51;;;;;;;1.50;1.25;;;19.90;40.00;;;;;;6202633;27;19934;-61
2022/12/01 17:48:53;;;;;;;1.60;1.50;;;19.70;40.00;;;;;;6214807;27;20119;-62
2022/12/01 17:51:55;;;;;;;1.58;1.45;;;20.00;39.90;;;;;;6210752;27;20039;-61